createdAt,value
2017-12-22T00:00:52.246Z,32.80
2017-12-22T00:01:52.265Z,36.20
2017-12-22T00:02:52.283Z,36.10
2017-12-22T00:03:52.301Z,41.50
2017-12-22T00:04:52.320Z,31.30
2017-12-22T00:05:52.338Z,31.50
2017-12-22T00:06:52.357Z,33.00
2017-12-22T00:07:52.375Z,31.50
2017-12-22T00:08:52.393Z,32.90
2017-12-22T00:09:52.412Z,33.10
2017-12-22T00:10:52.430Z,31.80
2017-12-22T00:11:52.448Z,31.80
2017-12-22T00:12:52.468Z,31.20
2017-12-22T00:13:52.486Z,30.90
2017-12-22T00:14:52.514Z,44.30
2017-12-22T00:15:52.526Z,31.80
2017-12-22T00:16:52.539Z,34.40
2017-12-22T00:17:52.566Z,31.80
2017-12-22T00:18:52.577Z,31.50
2017-12-22T00:19:52.595Z,30.90
2017-12-22T00:20:52.613Z,31.00
2017-12-22T00:21:52.632Z,31.00
2017-12-22T00:22:52.650Z,30.50
2017-12-22T00:23:52.667Z,33.60
2017-12-22T00:24:52.686Z,31.90
2017-12-22T00:25:52.705Z,30.60
2017-12-22T00:26:52.723Z,30.50
2017-12-22T00:27:52.742Z,30.10
2017-12-22T00:28:52.759Z,31.10
2017-12-22T00:29:52.779Z,28.80
2017-12-22T00:30:52.796Z,30.80
2017-12-22T00:31:52.815Z,31.80
2017-12-22T00:32:52.832Z,28.00
2017-12-22T00:33:52.854Z,30.90
2017-12-22T00:34:52.869Z,30.80
2017-12-22T00:35:52.887Z,32.00
2017-12-22T00:36:52.906Z,31.40
2017-12-22T00:37:52.925Z,29.60
2017-12-22T00:38:52.948Z,30.80
2017-12-22T00:39:52.959Z,29.40
2017-12-22T00:40:52.978Z,30.30
2017-12-22T00:41:52.997Z,30.80
2017-12-22T00:42:53.013Z,30.70
2017-12-22T00:43:53.033Z,31.00
2017-12-22T00:44:53.050Z,29.50
2017-12-22T00:45:53.169Z,30.70
2017-12-22T00:46:53.086Z,29.50
2017-12-22T00:47:53.105Z,29.70
2017-12-22T00:48:53.122Z,32.60
2017-12-22T00:49:53.147Z,29.80
2017-12-22T00:50:53.159Z,31.00
2017-12-22T00:51:53.176Z,29.20
2017-12-22T00:52:53.194Z,30.60
2017-12-22T00:53:53.214Z,28.90
2017-12-22T00:54:53.230Z,31.60
2017-12-22T00:55:53.249Z,31.00
2017-12-22T00:56:53.282Z,31.60
2017-12-22T00:57:53.285Z,30.30
2017-12-22T00:58:53.302Z,30.40
2017-12-22T00:59:53.321Z,31.30
2017-12-22T01:00:53.339Z,31.40
2017-12-22T01:01:53.358Z,30.20
2017-12-22T01:02:53.374Z,32.30
2017-12-22T01:03:53.431Z,31.50
2017-12-22T01:04:53.412Z,31.70
2017-12-22T01:05:53.429Z,31.20
2017-12-22T01:06:53.447Z,31.80
2017-12-22T01:07:53.466Z,30.20
2017-12-22T01:08:53.483Z,33.00
2017-12-22T01:09:53.501Z,31.10
2017-12-22T01:10:53.519Z,32.20
2017-12-22T01:11:53.537Z,32.30
2017-12-22T01:12:53.555Z,31.60
2017-12-22T01:13:53.573Z,33.20
2017-12-22T01:14:53.590Z,31.10
2017-12-22T01:15:53.615Z,31.00
2017-12-22T01:16:53.627Z,32.10
2017-12-22T01:17:53.645Z,31.20
2017-12-22T01:18:53.669Z,31.70
2017-12-22T01:19:53.681Z,31.00
2017-12-22T01:20:53.699Z,31.80
2017-12-22T01:21:53.717Z,30.20
2017-12-22T01:22:53.736Z,32.60
2017-12-22T01:23:53.755Z,33.70
2017-12-22T01:24:53.771Z,31.90
2017-12-22T01:25:53.789Z,32.90
2017-12-22T01:26:53.807Z,31.60
2017-12-22T01:27:53.825Z,32.20
2017-12-22T01:28:53.844Z,31.10
2017-12-22T01:29:53.861Z,31.60
2017-12-22T01:30:53.881Z,31.10
2017-12-22T01:31:53.899Z,33.00
2017-12-22T01:32:53.917Z,34.30
2017-12-22T01:33:53.936Z,34.10
2017-12-22T01:34:53.952Z,31.60
2017-12-22T01:35:53.972Z,32.80
2017-12-22T01:36:53.989Z,33.30
2017-12-22T01:37:54.007Z,33.40
2017-12-22T01:38:54.026Z,33.20
2017-12-22T01:39:54.044Z,34.10
2017-12-22T01:40:54.062Z,34.30
2017-12-22T01:41:54.080Z,33.90
2017-12-22T01:42:54.101Z,34.50
2017-12-22T01:43:54.116Z,34.20
2017-12-22T01:44:54.136Z,32.10
2017-12-22T01:45:54.153Z,34.30
2017-12-22T01:46:54.169Z,34.70
2017-12-22T01:47:54.439Z,36.00
2017-12-22T01:48:54.208Z,36.20
2017-12-22T01:49:54.225Z,34.50
2017-12-22T01:50:54.244Z,33.60
2017-12-22T01:51:54.261Z,34.20
2017-12-22T01:52:54.482Z,33.40
2017-12-22T01:53:54.299Z,35.70
2017-12-22T01:54:54.316Z,33.90
2017-12-22T01:55:54.337Z,35.60
2017-12-22T01:56:54.352Z,31.80
2017-12-22T01:57:54.370Z,35.20
2017-12-22T01:58:54.388Z,35.90
2017-12-22T01:59:54.407Z,34.10
2017-12-22T02:00:54.426Z,35.70
2017-12-22T02:01:54.459Z,34.80
2017-12-22T02:02:54.461Z,36.10
2017-12-22T02:03:54.479Z,37.80
2017-12-22T02:04:54.497Z,36.40
2017-12-22T02:05:54.516Z,39.00
2017-12-22T02:06:54.534Z,37.30
2017-12-22T02:07:54.553Z,34.90
2017-12-22T02:08:54.571Z,38.50
2017-12-22T02:09:54.588Z,38.70
2017-12-22T02:10:54.607Z,38.00
2017-12-22T02:11:54.626Z,36.20
2017-12-22T02:12:54.644Z,39.20
2017-12-22T02:13:54.663Z,39.30
2017-12-22T02:14:54.679Z,39.00
2017-12-22T02:15:54.697Z,38.30
2017-12-22T02:16:54.716Z,37.60
2017-12-22T02:17:54.734Z,39.60
2017-12-22T02:18:54.753Z,38.90
2017-12-22T02:19:54.770Z,39.50
2017-12-22T02:20:54.790Z,40.10
2017-12-22T02:21:54.808Z,41.60
2017-12-22T02:22:54.824Z,41.10
2017-12-22T02:23:54.845Z,41.30
2017-12-22T02:24:54.862Z,41.80
2017-12-22T02:25:54.880Z,39.90
2017-12-22T02:26:54.897Z,39.10
2017-12-22T02:27:54.916Z,38.70
2017-12-22T02:28:54.935Z,41.80
2017-12-22T02:29:54.952Z,40.80
2017-12-22T02:30:54.971Z,40.50
2017-12-22T02:31:54.989Z,38.90
2017-12-22T02:32:55.008Z,39.00
2017-12-22T02:33:55.025Z,38.20
2017-12-22T02:34:55.043Z,41.40
2017-12-22T02:35:55.061Z,41.90
2017-12-22T02:36:55.081Z,41.40
2017-12-22T02:37:55.099Z,38.80
2017-12-22T02:38:55.117Z,40.80
2017-12-22T02:39:55.135Z,38.80
2017-12-22T02:40:55.152Z,41.30
2017-12-22T02:41:55.172Z,39.50
2017-12-22T02:42:55.196Z,41.90
2017-12-22T02:43:55.209Z,42.00
2017-12-22T02:44:55.226Z,42.50
2017-12-22T02:45:55.246Z,42.90
2017-12-22T02:46:55.263Z,43.00
2017-12-22T02:47:55.289Z,43.70
2017-12-22T02:48:55.307Z,45.60
2017-12-22T02:49:55.319Z,45.10
2017-12-22T02:50:55.336Z,45.30
2017-12-22T02:51:55.354Z,45.00
2017-12-22T02:52:55.374Z,47.00
2017-12-22T02:53:55.390Z,44.70
2017-12-22T02:54:55.408Z,44.50
2017-12-22T02:55:55.428Z,44.80
2017-12-22T02:56:55.445Z,45.10
2017-12-22T02:57:55.464Z,44.30
2017-12-22T02:58:55.483Z,45.00
2017-12-22T02:59:55.501Z,45.60
2017-12-22T03:00:55.518Z,42.60
2017-12-22T03:01:55.536Z,46.00
2017-12-22T03:02:55.554Z,44.40
2017-12-22T03:03:55.572Z,44.90
2017-12-22T03:04:55.592Z,43.70
2017-12-22T03:05:55.611Z,43.30
2017-12-22T03:06:55.628Z,46.80
2017-12-22T03:07:55.646Z,43.10
2017-12-22T03:08:55.665Z,42.30
2017-12-22T03:09:55.685Z,43.00
2017-12-22T03:10:55.702Z,44.90
2017-12-22T03:11:55.720Z,42.90
2017-12-22T03:12:55.738Z,43.70
2017-12-22T03:13:55.758Z,42.80
2017-12-22T03:14:55.774Z,44.70
2017-12-22T03:15:55.795Z,42.50
2017-12-22T03:16:55.813Z,42.40
2017-12-22T03:17:55.830Z,44.10
2017-12-22T03:18:55.849Z,44.90
2017-12-22T03:19:55.868Z,42.30
2017-12-22T03:20:55.935Z,43.60
2017-12-22T03:21:55.905Z,42.30
2017-12-22T03:22:55.923Z,43.20
2017-12-22T03:23:55.941Z,43.60
2017-12-22T03:24:55.960Z,41.40
2017-12-22T03:25:55.978Z,41.70
2017-12-22T03:26:56.000Z,41.10
2017-12-22T03:27:56.014Z,43.70
2017-12-22T03:28:56.035Z,43.60
2017-12-22T03:29:56.054Z,42.30
2017-12-22T03:30:56.071Z,44.90
2017-12-22T03:31:56.089Z,45.00
2017-12-22T03:32:56.108Z,43.70
2017-12-22T03:33:56.126Z,42.60
2017-12-22T03:34:56.143Z,44.70
2017-12-22T03:35:56.164Z,44.50
2017-12-22T03:36:56.190Z,43.20
2017-12-22T03:37:56.200Z,43.30
2017-12-22T03:38:56.219Z,43.30
2017-12-22T03:39:56.237Z,43.70
2017-12-22T03:40:56.255Z,44.10
2017-12-22T03:41:56.275Z,41.80
2017-12-22T03:42:56.293Z,41.90
2017-12-22T03:43:56.310Z,42.30
2017-12-22T03:44:56.330Z,42.50
2017-12-22T03:45:56.349Z,42.20
2017-12-22T03:46:56.365Z,43.20
2017-12-22T03:47:56.384Z,45.90
2017-12-22T03:48:56.402Z,42.20
2017-12-22T03:49:56.423Z,44.50
2017-12-22T03:50:56.440Z,44.30
2017-12-22T03:51:56.459Z,42.60
2017-12-22T03:52:56.485Z,44.70
2017-12-22T03:53:56.497Z,44.00
2017-12-22T03:54:56.565Z,44.00
2017-12-22T03:55:56.534Z,41.60
2017-12-22T03:56:56.552Z,41.10
2017-12-22T03:57:56.570Z,43.40
2017-12-22T03:58:56.588Z,43.80
2017-12-22T03:59:56.608Z,42.60
2017-12-22T04:00:56.677Z,41.20
2017-12-22T04:01:56.645Z,43.40
2017-12-22T04:02:56.662Z,42.40
2017-12-22T04:03:56.681Z,43.10
2017-12-22T04:04:56.701Z,44.80
2017-12-22T04:05:56.720Z,45.10
2017-12-22T04:06:56.741Z,40.80
2017-12-22T04:07:57.006Z,41.70
2017-12-22T04:08:56.773Z,42.40
2017-12-22T04:09:56.793Z,41.70
2017-12-22T04:10:56.968Z,42.90
2017-12-22T04:11:56.830Z,43.20
2017-12-22T04:12:56.847Z,43.10
2017-12-22T04:13:56.870Z,44.00
2017-12-22T04:14:56.884Z,43.90
2017-12-22T04:15:56.902Z,43.60
2017-12-22T04:16:56.921Z,43.10
2017-12-22T04:17:56.939Z,41.90
2017-12-22T04:18:56.957Z,40.50
2017-12-22T04:19:56.976Z,42.50
2017-12-22T04:20:56.994Z,43.40
2017-12-22T04:21:57.013Z,41.80
2017-12-22T04:22:57.030Z,40.60
2017-12-22T04:23:57.049Z,41.40
2017-12-22T04:24:57.067Z,42.00
2017-12-22T04:25:57.088Z,41.60
2017-12-22T04:26:57.104Z,40.10
2017-12-22T04:27:57.123Z,41.20
2017-12-22T04:28:57.141Z,41.90
2017-12-22T04:29:57.161Z,40.70
2017-12-22T04:30:57.177Z,41.10
2017-12-22T04:31:57.194Z,39.80
2017-12-22T04:32:57.214Z,41.80
2017-12-22T04:33:57.234Z,41.30
2017-12-22T04:34:57.250Z,41.70
2017-12-22T04:35:57.268Z,43.80
2017-12-22T04:36:57.288Z,40.20
2017-12-22T04:37:57.306Z,42.50
2017-12-22T04:38:57.323Z,40.80
2017-12-22T04:39:57.342Z,43.10
2017-12-22T04:40:57.359Z,43.10
2017-12-22T04:41:57.379Z,41.20
2017-12-22T04:42:57.400Z,40.80
2017-12-22T04:43:57.414Z,41.20
2017-12-22T04:44:57.433Z,40.50
2017-12-22T04:45:57.453Z,42.70
2017-12-22T04:46:57.470Z,40.50
2017-12-22T04:47:57.495Z,41.00
2017-12-22T04:48:57.506Z,42.40
2017-12-22T04:49:57.525Z,40.80
2017-12-22T04:50:57.543Z,40.90
2017-12-22T04:51:57.561Z,42.80
2017-12-22T04:52:57.580Z,42.60
2017-12-22T04:53:57.597Z,39.50
2017-12-22T04:54:57.616Z,42.90
2017-12-22T04:55:57.635Z,40.40
2017-12-22T04:56:57.651Z,40.50
2017-12-22T04:57:57.671Z,42.90
2017-12-22T04:58:57.692Z,40.50
2017-12-22T04:59:57.708Z,44.30
2017-12-22T05:00:57.726Z,42.50
2017-12-22T05:01:57.744Z,40.40
2017-12-22T05:02:57.760Z,41.40
2017-12-22T05:03:57.780Z,40.60
2017-12-22T05:04:57.798Z,39.60
2017-12-22T05:05:57.817Z,40.10
2017-12-22T05:06:57.834Z,39.50
2017-12-22T05:07:57.852Z,39.70
2017-12-22T05:08:57.871Z,40.30
2017-12-22T05:09:57.889Z,41.10
2017-12-22T05:10:57.905Z,38.00
2017-12-22T05:11:57.924Z,40.10
2017-12-22T05:12:57.944Z,41.00
2017-12-22T05:13:57.962Z,39.50
2017-12-22T05:14:57.979Z,39.70
2017-12-22T05:15:57.998Z,38.20
2017-12-22T05:16:58.017Z,39.80
2017-12-22T05:17:58.036Z,40.60
2017-12-22T05:18:58.053Z,39.70
2017-12-22T05:19:58.072Z,40.40
2017-12-22T05:20:58.088Z,37.40
2017-12-22T05:21:58.108Z,39.90
2017-12-22T05:22:58.125Z,39.20
2017-12-22T05:23:58.146Z,40.00
2017-12-22T05:24:58.212Z,39.30
2017-12-22T05:25:58.180Z,39.50
2017-12-22T05:26:58.199Z,38.30
2017-12-22T05:27:58.217Z,40.10
2017-12-22T05:28:58.236Z,39.00
2017-12-22T05:29:58.254Z,39.90
2017-12-22T05:30:58.272Z,39.80
2017-12-22T05:31:58.290Z,40.60
2017-12-22T05:32:58.309Z,39.20
2017-12-22T05:33:58.326Z,39.10
2017-12-22T05:34:58.345Z,41.60
2017-12-22T05:35:58.363Z,41.40
2017-12-22T05:36:58.381Z,39.10
2017-12-22T05:37:58.400Z,40.70
2017-12-22T05:38:58.418Z,39.20
2017-12-22T05:39:58.436Z,39.70
2017-12-22T05:40:58.455Z,39.90
2017-12-22T05:41:58.473Z,39.60
2017-12-22T05:42:58.490Z,40.10
2017-12-22T05:43:58.514Z,41.00
2017-12-22T05:44:58.528Z,40.80
2017-12-22T05:45:58.546Z,39.40
2017-12-22T05:46:58.570Z,40.60
2017-12-22T05:47:58.583Z,41.40
2017-12-22T05:48:58.601Z,39.50
2017-12-22T05:49:58.621Z,38.80
2017-12-22T05:50:58.639Z,39.80
2017-12-22T05:51:58.657Z,42.10
2017-12-22T05:52:58.676Z,41.90
2017-12-22T05:53:58.694Z,42.60
2017-12-22T05:54:58.713Z,41.40
2017-12-22T05:55:58.730Z,41.70
2017-12-22T05:56:58.751Z,39.90
2017-12-22T05:57:58.767Z,39.50
2017-12-22T05:58:58.786Z,40.80
2017-12-22T05:59:58.805Z,42.80
2017-12-22T06:00:58.822Z,40.40
2017-12-22T06:01:58.840Z,41.30
2017-12-22T06:02:58.858Z,41.30
2017-12-22T06:03:58.877Z,42.10
2017-12-22T06:04:58.897Z,39.90
2017-12-22T06:05:58.915Z,41.40
2017-12-22T06:06:58.931Z,40.80
2017-12-22T06:07:58.951Z,42.40
2017-12-22T06:08:58.970Z,42.40
2017-12-22T06:09:58.987Z,43.00
2017-12-22T06:10:59.005Z,40.20
2017-12-22T06:11:59.024Z,41.80
2017-12-22T06:12:59.044Z,40.60
2017-12-22T06:13:59.062Z,42.30
2017-12-22T06:14:59.080Z,40.60
2017-12-22T06:15:59.098Z,40.20
2017-12-22T06:16:59.116Z,39.10
2017-12-22T06:17:59.135Z,39.40
2017-12-22T06:18:59.153Z,40.40
2017-12-22T06:19:59.171Z,39.60
2017-12-22T06:20:59.189Z,42.30
2017-12-22T06:21:59.209Z,43.10
2017-12-22T06:22:59.282Z,41.60
2017-12-22T06:23:59.247Z,43.40
2017-12-22T06:24:59.263Z,41.90
2017-12-22T06:25:59.282Z,42.40
2017-12-22T06:26:59.299Z,43.50
2017-12-22T06:27:59.318Z,45.70
2017-12-22T06:28:59.336Z,45.20
2017-12-22T06:29:59.355Z,43.20
2017-12-22T06:30:59.379Z,45.30
2017-12-22T06:31:59.391Z,45.50
2017-12-22T06:32:59.409Z,43.80
2017-12-22T06:33:59.427Z,46.20
2017-12-22T06:34:59.445Z,46.20
2017-12-22T06:35:59.463Z,45.90
2017-12-22T06:36:59.484Z,46.30
2017-12-22T06:37:59.499Z,46.90
2017-12-22T06:38:59.518Z,49.50
2017-12-22T06:39:59.537Z,50.40
2017-12-22T06:40:59.554Z,46.80
2017-12-22T06:41:59.574Z,48.60
2017-12-22T06:42:59.590Z,49.00
2017-12-22T06:43:59.610Z,50.00
2017-12-22T06:44:59.631Z,51.30
2017-12-22T06:45:59.645Z,53.00
2017-12-22T06:46:59.663Z,50.80
2017-12-22T06:47:59.682Z,51.20
2017-12-22T06:48:59.699Z,49.60
2017-12-22T06:49:59.720Z,50.10
2017-12-22T06:50:59.736Z,49.40
2017-12-22T06:51:59.759Z,50.70
2017-12-22T06:52:59.772Z,52.20
2017-12-22T06:53:59.791Z,51.40
2017-12-22T06:54:59.809Z,51.20
2017-12-22T06:55:59.827Z,51.60
2017-12-22T06:56:59.847Z,48.70
2017-12-22T06:57:59.864Z,48.60
2017-12-22T06:58:59.881Z,49.50
2017-12-22T06:59:59.901Z,52.10
2017-12-22T07:00:59.920Z,49.90
2017-12-22T07:01:59.938Z,51.70
2017-12-22T07:02:59.954Z,51.30
2017-12-22T07:04:00.024Z,53.90
2017-12-22T07:04:59.992Z,53.70
2017-12-22T07:06:00.011Z,53.50
2017-12-22T07:07:00.028Z,53.60
2017-12-22T07:08:00.046Z,54.50
2017-12-22T07:09:00.064Z,52.60
2017-12-22T07:10:00.083Z,56.80
2017-12-22T07:11:00.100Z,55.50
2017-12-22T07:12:00.119Z,53.80
2017-12-22T07:13:00.137Z,56.60
2017-12-22T07:14:00.156Z,53.10
2017-12-22T07:15:00.174Z,54.00
2017-12-22T07:16:00.192Z,52.30
2017-12-22T07:17:00.211Z,55.80
2017-12-22T07:18:00.230Z,56.20
2017-12-22T07:19:00.248Z,56.40
2017-12-22T07:20:00.265Z,54.40
2017-12-22T07:21:00.284Z,55.90
2017-12-22T07:22:00.303Z,53.80
2017-12-22T07:23:00.321Z,54.20
2017-12-22T07:24:00.339Z,55.70
2017-12-22T07:25:00.358Z,58.10
2017-12-22T07:26:00.377Z,57.70
2017-12-22T07:27:00.394Z,55.10
2017-12-22T07:28:00.413Z,55.90
2017-12-22T07:29:00.430Z,57.20
2017-12-22T07:30:00.492Z,55.90
2017-12-22T07:31:00.469Z,54.70
2017-12-22T07:32:00.486Z,54.60
2017-12-22T07:33:00.505Z,53.60
2017-12-22T07:34:00.522Z,56.70
2017-12-22T07:35:00.541Z,56.20
2017-12-22T07:36:00.559Z,53.70
2017-12-22T07:37:00.578Z,56.40
2017-12-22T07:38:00.595Z,54.80
2017-12-22T07:39:00.614Z,55.80
2017-12-22T07:40:00.633Z,56.10
2017-12-22T07:41:00.651Z,60.20
2017-12-22T07:42:00.669Z,56.40
2017-12-22T07:43:00.687Z,61.60
2017-12-22T07:44:00.706Z,63.70
2017-12-22T07:45:00.727Z,63.70
2017-12-22T07:46:00.744Z,63.90
2017-12-22T07:47:00.761Z,66.00
2017-12-22T07:48:00.778Z,63.30
2017-12-22T07:49:00.797Z,63.60
2017-12-22T07:50:00.817Z,64.60
2017-12-22T07:51:00.834Z,67.00
2017-12-22T07:52:00.853Z,63.50
2017-12-22T07:53:00.870Z,60.90
2017-12-22T07:54:00.890Z,64.50
2017-12-22T07:55:00.909Z,63.40
2017-12-22T07:56:00.927Z,68.00
2017-12-22T07:57:00.945Z,66.70
2017-12-22T07:58:00.964Z,67.40
2017-12-22T07:59:01.130Z,71.70
2017-12-22T08:00:01.000Z,77.60
2017-12-22T08:01:01.020Z,73.10
2017-12-22T08:02:01.086Z,75.30
2017-12-22T08:03:01.054Z,69.60
2017-12-22T08:04:01.072Z,69.90
2017-12-22T08:05:01.093Z,69.20
2017-12-22T08:06:01.110Z,68.60
2017-12-22T08:07:01.126Z,76.60
2017-12-22T08:08:01.145Z,73.00
2017-12-22T08:09:01.165Z,80.00
2017-12-22T08:10:01.285Z,75.00
2017-12-22T08:11:01.221Z,74.10
2017-12-22T08:12:01.219Z,80.90
2017-12-22T08:13:01.238Z,75.40
2017-12-22T08:14:01.267Z,83.80
2017-12-22T08:15:01.275Z,79.80
2017-12-22T08:16:01.293Z,84.60
2017-12-22T08:17:01.312Z,81.30
2017-12-22T08:18:01.331Z,82.20
2017-12-22T08:19:01.500Z,76.30
2017-12-22T08:20:01.368Z,79.00
2017-12-22T08:21:01.386Z,75.00
2017-12-22T08:22:01.405Z,78.60
2017-12-22T08:23:01.425Z,75.50
2017-12-22T08:24:01.444Z,74.00
2017-12-22T08:25:01.510Z,73.80
2017-12-22T08:26:01.481Z,72.50
2017-12-22T08:27:01.497Z,74.90
2017-12-22T08:28:01.515Z,74.90
2017-12-22T08:29:01.535Z,71.70
2017-12-22T08:30:01.554Z,72.50
2017-12-22T08:31:01.709Z,71.40
2017-12-22T08:32:01.712Z,75.10
2017-12-22T08:33:01.652Z,80.30
2017-12-22T08:34:01.652Z,70.80
2017-12-22T08:35:01.657Z,74.00
2017-12-22T08:36:01.665Z,73.10
2017-12-22T08:37:01.684Z,110.20
2017-12-22T08:38:01.702Z,79.30
2017-12-22T08:39:01.720Z,82.20
2017-12-22T08:40:01.739Z,78.30
2017-12-22T08:41:01.760Z,75.10
2017-12-22T08:42:01.777Z,71.10
2017-12-22T08:43:01.794Z,68.60
2017-12-22T08:44:01.819Z,73.80
2017-12-22T08:45:01.832Z,71.80
2017-12-22T08:46:01.851Z,74.20
2017-12-22T08:47:01.870Z,69.20
2017-12-22T08:48:01.889Z,64.40
2017-12-22T08:49:01.910Z,70.00
2017-12-22T08:50:01.928Z,67.30
2017-12-22T08:51:01.945Z,67.20
2017-12-22T08:52:01.968Z,69.00
2017-12-22T08:53:01.983Z,71.60
2017-12-22T08:54:02.002Z,70.30
2017-12-22T08:55:02.019Z,70.80
2017-12-22T08:56:02.038Z,70.80
2017-12-22T08:57:02.057Z,66.00
2017-12-22T08:58:02.077Z,63.00
2017-12-22T08:59:02.095Z,73.30
2017-12-22T09:00:02.114Z,67.10
2017-12-22T09:01:02.134Z,99.10
2017-12-22T09:02:02.151Z,129.70
2017-12-22T09:03:02.169Z,86.80
2017-12-22T09:04:02.188Z,81.40
2017-12-22T09:05:02.208Z,80.20
2017-12-22T09:06:02.226Z,78.30
2017-12-22T09:07:02.255Z,85.30
2017-12-22T09:08:02.264Z,87.80
2017-12-22T09:09:02.289Z,77.10
2017-12-22T09:10:02.303Z,75.10
2017-12-22T09:11:02.320Z,75.80
2017-12-22T09:12:02.338Z,81.00
2017-12-22T09:13:02.358Z,79.30
2017-12-22T09:14:02.382Z,76.00
2017-12-22T09:15:02.396Z,72.60
2017-12-22T09:16:02.413Z,71.40
2017-12-22T09:17:02.483Z,73.00
2017-12-22T09:18:02.452Z,73.40
2017-12-22T09:19:02.510Z,76.90
2017-12-22T09:20:02.491Z,76.10
2017-12-22T09:21:02.508Z,72.90
2017-12-22T09:22:02.527Z,73.30
2017-12-22T09:23:02.544Z,71.80
2017-12-22T09:24:02.566Z,71.40
2017-12-22T09:25:02.584Z,70.30
2017-12-22T09:26:02.601Z,65.30
2017-12-22T09:27:02.620Z,66.80
2017-12-22T09:28:02.638Z,68.10
2017-12-22T09:29:02.658Z,69.40
2017-12-22T09:30:02.677Z,72.30
2017-12-22T09:31:02.696Z,76.30
2017-12-22T09:32:02.718Z,72.50
2017-12-22T09:33:02.789Z,72.10
2017-12-22T09:34:02.752Z,72.00
2017-12-22T09:35:02.770Z,73.70
2017-12-22T09:36:02.791Z,71.90
2017-12-22T09:37:02.809Z,68.80
2017-12-22T09:38:02.828Z,64.80
2017-12-22T09:39:02.847Z,66.60
2017-12-22T09:40:02.869Z,62.30
2017-12-22T09:41:02.902Z,63.10
2017-12-22T09:42:02.903Z,63.80
2017-12-22T09:43:02.922Z,61.30
2017-12-22T09:44:02.943Z,64.10
2017-12-22T09:45:02.961Z,65.30
2017-12-22T09:46:02.979Z,63.70
2017-12-22T09:47:02.999Z,61.00
2017-12-22T09:48:03.034Z,59.20
2017-12-22T09:49:03.035Z,62.80
2017-12-22T09:50:03.057Z,60.40
2017-12-22T09:51:03.099Z,62.50
2017-12-22T09:52:03.093Z,65.20
2017-12-22T09:53:03.112Z,61.80
2017-12-22T09:54:03.132Z,62.00
2017-12-22T09:55:03.151Z,65.80
2017-12-22T09:56:03.168Z,60.40
2017-12-22T09:57:03.187Z,57.50
2017-12-22T09:58:03.207Z,55.60
2017-12-22T09:59:03.227Z,55.90
2017-12-22T10:00:03.249Z,99.40
2017-12-22T10:01:03.300Z,68.00
2017-12-22T10:02:03.285Z,62.70
2017-12-22T10:03:03.302Z,61.60
2017-12-22T10:04:03.320Z,58.40
2017-12-22T10:05:03.341Z,57.20
2017-12-22T10:06:03.361Z,52.90
2017-12-22T10:07:03.379Z,56.40
2017-12-22T10:08:03.399Z,55.10
2017-12-22T10:09:03.417Z,50.70
2017-12-22T10:10:03.437Z,51.00
2017-12-22T10:11:03.456Z,52.90
2017-12-22T10:12:03.474Z,51.40
2017-12-22T10:13:03.495Z,51.90
2017-12-22T10:14:03.515Z,51.30
2017-12-22T10:15:03.532Z,47.70
2017-12-22T10:16:03.552Z,48.60
2017-12-22T10:17:03.572Z,49.80
2017-12-22T10:18:03.590Z,51.40
2017-12-22T10:19:03.611Z,49.60
2017-12-22T10:20:03.629Z,47.10
2017-12-22T10:21:03.648Z,46.40
2017-12-22T10:22:03.668Z,47.60
2017-12-22T10:23:03.687Z,47.10
2017-12-22T10:24:03.706Z,46.20
2017-12-22T10:25:03.726Z,50.20
2017-12-22T10:26:03.804Z,51.50
2017-12-22T10:27:03.764Z,49.40
2017-12-22T10:28:03.785Z,49.80
2017-12-22T10:29:03.804Z,49.10
2017-12-22T10:30:03.876Z,44.40
2017-12-22T10:31:03.842Z,41.20
2017-12-22T10:32:03.862Z,39.20
2017-12-22T10:33:03.880Z,35.20
2017-12-22T10:34:03.901Z,34.10
2017-12-22T10:35:03.920Z,35.60
2017-12-22T10:36:03.939Z,35.00
2017-12-22T10:37:03.960Z,37.50
2017-12-22T10:38:03.979Z,36.30
2017-12-22T10:39:03.998Z,33.30
2017-12-22T10:40:04.028Z,33.30
2017-12-22T10:41:04.037Z,36.50
2017-12-22T10:42:04.057Z,36.20
2017-12-22T10:43:04.075Z,34.10
2017-12-22T10:44:04.095Z,37.60
2017-12-22T10:45:04.114Z,35.10
2017-12-22T10:46:04.133Z,33.20
2017-12-22T10:47:04.155Z,36.80
2017-12-22T10:48:04.171Z,35.30
2017-12-22T10:49:04.192Z,34.40
2017-12-22T10:50:04.223Z,34.20
2017-12-22T10:51:04.231Z,35.00
2017-12-22T10:52:04.249Z,37.10
2017-12-22T10:53:04.271Z,39.20
2017-12-22T10:54:04.420Z,38.70
2017-12-22T10:55:04.307Z,36.30
2017-12-22T10:56:04.326Z,33.50
2017-12-22T10:57:04.347Z,35.60
2017-12-22T10:58:04.366Z,35.60
2017-12-22T10:59:04.385Z,33.50
2017-12-22T11:00:04.405Z,33.50
2017-12-22T11:01:04.424Z,31.20
2017-12-22T11:02:04.501Z,32.60
2017-12-22T11:03:04.461Z,32.50
2017-12-22T11:04:04.481Z,31.20
2017-12-22T11:05:04.500Z,32.00
2017-12-22T11:06:04.522Z,33.40
2017-12-22T11:07:04.539Z,33.30
2017-12-22T11:08:04.559Z,33.10
2017-12-22T11:09:04.577Z,32.40
2017-12-22T11:10:04.596Z,30.70
2017-12-22T11:11:04.615Z,33.50
2017-12-22T11:12:04.634Z,32.70
2017-12-22T11:13:04.657Z,31.40
2017-12-22T11:14:04.673Z,34.20
2017-12-22T11:15:04.692Z,31.80
2017-12-22T11:16:04.712Z,31.40
2017-12-22T11:17:04.730Z,32.90
2017-12-22T11:18:04.750Z,30.50
2017-12-22T11:19:04.825Z,30.80
2017-12-22T11:20:04.788Z,32.40
2017-12-22T11:21:04.809Z,30.70
2017-12-22T11:22:04.828Z,31.00
2017-12-22T11:23:04.844Z,30.70
2017-12-22T11:24:04.922Z,32.00
2017-12-22T11:25:04.884Z,32.50
2017-12-22T11:26:04.904Z,32.10
2017-12-22T11:27:04.923Z,32.30
2017-12-22T11:28:04.941Z,32.30
2017-12-22T11:29:04.962Z,31.00
2017-12-22T11:30:04.980Z,33.10
2017-12-22T11:31:04.998Z,30.50
2017-12-22T11:32:05.018Z,31.50
2017-12-22T11:33:05.038Z,28.90
2017-12-22T11:34:05.057Z,30.10
2017-12-22T11:35:05.075Z,28.80
2017-12-22T11:36:05.095Z,29.90
2017-12-22T11:37:05.114Z,28.80
2017-12-22T11:38:05.135Z,28.50
2017-12-22T11:39:05.152Z,29.60
2017-12-22T11:40:05.172Z,29.00
2017-12-22T11:41:05.191Z,31.20
2017-12-22T11:42:05.215Z,29.50
2017-12-22T11:43:05.230Z,29.90
2017-12-22T11:44:05.248Z,31.00
2017-12-22T11:45:05.272Z,29.40
2017-12-22T11:46:05.286Z,31.10
2017-12-22T11:47:05.305Z,29.30
2017-12-22T11:48:05.324Z,31.10
2017-12-22T11:49:05.345Z,32.10
2017-12-22T11:50:05.362Z,31.70
2017-12-22T11:51:05.381Z,30.50
2017-12-22T11:52:05.459Z,32.00
2017-12-22T11:53:05.421Z,30.10
2017-12-22T11:54:05.439Z,30.70
2017-12-22T11:55:05.460Z,29.90
2017-12-22T11:56:05.480Z,32.70
2017-12-22T11:57:05.550Z,30.40
2017-12-22T11:58:05.571Z,30.00
2017-12-22T11:59:05.535Z,28.90
2017-12-22T12:00:05.558Z,29.70
2017-12-22T12:01:05.572Z,27.90
2017-12-22T12:02:05.593Z,27.70
2017-12-22T12:03:05.610Z,27.80
2017-12-22T12:04:05.632Z,27.60
2017-12-22T12:05:05.652Z,27.50
2017-12-22T12:06:05.668Z,28.40
2017-12-22T12:07:05.686Z,28.20
2017-12-22T12:08:05.707Z,26.60
2017-12-22T12:09:05.725Z,27.40
2017-12-22T12:10:05.746Z,26.30
2017-12-22T12:11:05.763Z,26.00
2017-12-22T12:12:05.786Z,25.40
2017-12-22T12:13:05.802Z,25.00
2017-12-22T12:14:05.822Z,25.70
2017-12-22T12:15:05.840Z,26.80
2017-12-22T12:16:05.860Z,25.60
2017-12-22T12:17:05.880Z,26.20
2017-12-22T12:18:05.899Z,25.60
2017-12-22T12:19:05.917Z,25.30
2017-12-22T12:20:05.936Z,24.40
2017-12-22T12:21:05.955Z,24.20
2017-12-22T12:22:05.975Z,23.70
2017-12-22T12:23:05.993Z,24.00
2017-12-22T12:24:06.012Z,23.70
2017-12-22T12:25:06.032Z,25.30
2017-12-22T12:26:06.051Z,25.40
2017-12-22T12:27:06.070Z,25.90
2017-12-22T12:28:06.091Z,25.00
2017-12-22T12:29:06.110Z,25.20
2017-12-22T12:30:06.130Z,25.90
2017-12-22T12:31:06.190Z,25.70
2017-12-22T12:32:06.171Z,27.00
2017-12-22T12:33:06.187Z,25.80
2017-12-22T12:34:06.207Z,26.10
2017-12-22T12:35:06.275Z,26.40
2017-12-22T12:36:06.245Z,25.80
2017-12-22T12:37:06.264Z,25.80
2017-12-22T12:38:06.283Z,26.90
2017-12-22T12:39:06.301Z,25.90
2017-12-22T12:40:06.322Z,24.70
2017-12-22T12:41:06.340Z,25.10
2017-12-22T12:42:06.361Z,25.70
2017-12-22T12:43:06.378Z,25.00
2017-12-22T12:44:06.398Z,23.50
2017-12-22T12:45:06.417Z,24.40
2017-12-22T12:46:06.438Z,23.90
2017-12-22T12:47:06.507Z,25.10
2017-12-22T12:48:06.477Z,22.40
2017-12-22T12:49:06.495Z,23.00
2017-12-22T12:50:06.516Z,21.80
2017-12-22T12:51:06.534Z,20.90
2017-12-22T12:52:06.554Z,20.60
2017-12-22T12:53:06.572Z,18.60